sensor_id;sensor_type;location;lat;lon;timestamp;P1;durP1;ratioP1;P2;durP2;ratioP2
79597;SDS011;69081;53.572;9.970;2023-09-07T00:01:07;4.95;;;4.30;;
79597;SDS011;69081;53.572;9.970;2023-09-07T00:03:35;5.63;;;4.30;;
79597;SDS011;69081;53.572;9.970;2023-09-07T00:06:08;6.68;;;4.40;;
79597;SDS011;69081;53.572;9.970;2023-09-07T00:08:36;5.18;;;4.13;;
79597;SDS011;69081;53.572;9.970;2023-09-07T00:11:04;4.85;;;3.92;;
79597;SDS011;69081;53.572;9.970;2023-09-07T00:13:34;4.43;;;3.83;;
79597;SDS011;69081;53.572;9.970;2023-09-07T00:16:03;5.97;;;4.60;;
79597;SDS011;69081;53.572;9.970;2023-09-07T00:18:32;4.05;;;3.42;;
79597;SDS011;69081;53.572;9.970;2023-09-07T00:21:00;4.57;;;3.78;;
79597;SDS011;69081;53.572;9.970;2023-09-07T00:23:28;4.97;;;4.20;;
79597;SDS011;69081;53.572;9.970;2023-09-07T00:25:56;4.88;;;4.38;;
79597;SDS011;69081;53.572;9.970;2023-09-07T00:28:24;4.28;;;3.60;;
79597;SDS011;69081;53.572;9.970;2023-09-07T00:30:54;4.97;;;4.10;;
79597;SDS011;69081;53.572;9.970;2023-09-07T00:33:22;4.82;;;3.97;;
79597;SDS011;69081;53.572;9.970;2023-09-07T00:35:50;4.68;;;4.00;;
79597;SDS011;69081;53.572;9.970;2023-09-07T00:38:18;5.65;;;3.95;;
79597;SDS011;69081;53.572;9.970;2023-09-07T00:40:46;4.30;;;3.90;;
79597;SDS011;69081;53.572;9.970;2023-09-07T00:43:14;4.65;;;3.83;;
79597;SDS011;69081;53.572;9.970;2023-09-07T00:45:42;4.13;;;3.63;;
79597;SDS011;69081;53.572;9.970;2023-09-07T00:48:13;5.88;;;3.60;;
79597;SDS011;69081;53.572;9.970;2023-09-07T00:50:42;4.80;;;3.63;;
79597;SDS011;69081;53.572;9.970;2023-09-07T00:53:11;4.55;;;4.00;;
79597;SDS011;69081;53.572;9.970;2023-09-07T00:55:39;5.45;;;4.57;;
79597;SDS011;69081;53.572;9.970;2023-09-07T00:58:07;5.10;;;4.00;;
79597;SDS011;69081;53.572;9.970;2023-09-07T01:00:38;4.93;;;3.90;;
79597;SDS011;69081;53.572;9.970;2023-09-07T01:03:07;5.30;;;4.43;;
79597;SDS011;69081;53.572;9.970;2023-09-07T01:05:41;5.05;;;4.20;;
79597;SDS011;69081;53.572;9.970;2023-09-07T01:08:15;6.20;;;3.85;;
79597;SDS011;69081;53.572;9.970;2023-09-07T01:10:48;4.90;;;4.15;;
79597;SDS011;69081;53.572;9.970;2023-09-07T01:13:17;5.03;;;4.13;;
79597;SDS011;69081;53.572;9.970;2023-09-07T01:15:46;4.65;;;4.10;;
79597;SDS011;69081;53.572;9.970;2023-09-07T01:18:14;4.93;;;3.88;;
79597;SDS011;69081;53.572;9.970;2023-09-07T01:20:51;4.13;;;3.53;;
79597;SDS011;69081;53.572;9.970;2023-09-07T01:23:21;6.45;;;4.47;;
79597;SDS011;69081;53.572;9.970;2023-09-07T01:25:50;4.82;;;3.80;;
79597;SDS011;69081;53.572;9.970;2023-09-07T01:28:19;4.63;;;3.72;;
79597;SDS011;69081;53.572;9.970;2023-09-07T01:30:48;4.50;;;3.78;;
79597;SDS011;69081;53.572;9.970;2023-09-07T01:33:16;5.07;;;4.03;;
79597;SDS011;69081;53.572;9.970;2023-09-07T01:35:43;4.80;;;3.50;;
79597;SDS011;69081;53.572;9.970;2023-09-07T01:38:12;3.97;;;3.58;;
79597;SDS011;69081;53.572;9.970;2023-09-07T01:40:42;6.88;;;4.00;;
79597;SDS011;69081;53.572;9.970;2023-09-07T01:43:10;4.65;;;4.00;;
79597;SDS011;69081;53.572;9.970;2023-09-07T01:45:38;4.85;;;3.90;;
79597;SDS011;69081;53.572;9.970;2023-09-07T01:48:07;5.03;;;3.40;;
79597;SDS011;69081;53.572;9.970;2023-09-07T01:50:36;5.97;;;4.00;;
79597;SDS011;69081;53.572;9.970;2023-09-07T01:53:04;4.30;;;3.53;;
79597;SDS011;69081;53.572;9.970;2023-09-07T01:55:32;4.63;;;3.80;;
79597;SDS011;69081;53.572;9.970;2023-09-07T01:58:02;4.55;;;3.80;;
79597;SDS011;69081;53.572;9.970;2023-09-07T02:00:31;5.15;;;4.03;;
79597;SDS011;69081;53.572;9.970;2023-09-07T02:03:04;6.47;;;4.43;;
79597;SDS011;69081;53.572;9.970;2023-09-07T02:05:33;4.15;;;3.75;;
79597;SDS011;69081;53.572;9.970;2023-09-07T02:08:01;5.63;;;3.97;;
79597;SDS011;69081;53.572;9.970;2023-09-07T02:10:30;4.95;;;3.92;;
79597;SDS011;69081;53.572;9.970;2023-09-07T02:12:58;4.43;;;3.88;;
79597;SDS011;69081;53.572;9.970;2023-09-07T02:15:27;4.40;;;3.95;;
79597;SDS011;69081;53.572;9.970;2023-09-07T02:17:56;4.65;;;3.85;;
79597;SDS011;69081;53.572;9.970;2023-09-07T02:20:24;4.95;;;4.03;;
79597;SDS011;69081;53.572;9.970;2023-09-07T02:22:52;4.95;;;4.45;;
79597;SDS011;69081;53.572;9.970;2023-09-07T02:25:20;5.22;;;4.07;;
79597;SDS011;69081;53.572;9.970;2023-09-07T02:27:48;5.57;;;4.07;;
79597;SDS011;69081;53.572;9.970;2023-09-07T02:30:16;5.90;;;4.63;;
79597;SDS011;69081;53.572;9.970;2023-09-07T02:32:46;5.10;;;4.28;;
79597;SDS011;69081;53.572;9.970;2023-09-07T02:35:14;5.22;;;4.53;;
79597;SDS011;69081;53.572;9.970;2023-09-07T02:37:42;6.57;;;4.25;;
79597;SDS011;69081;53.572;9.970;2023-09-07T02:40:10;5.50;;;4.93;;
79597;SDS011;69081;53.572;9.970;2023-09-07T02:42:39;5.22;;;4.60;;
79597;SDS011;69081;53.572;9.970;2023-09-07T02:45:07;5.68;;;4.20;;
79597;SDS011;69081;53.572;9.970;2023-09-07T02:47:38;5.30;;;4.18;;
79597;SDS011;69081;53.572;9.970;2023-09-07T02:50:08;5.40;;;4.25;;
79597;SDS011;69081;53.572;9.970;2023-09-07T02:52:36;5.97;;;4.38;;
79597;SDS011;69081;53.572;9.970;2023-09-07T02:55:04;6.30;;;4.70;;
79597;SDS011;69081;53.572;9.970;2023-09-07T02:57:34;6.05;;;4.60;;
79597;SDS011;69081;53.572;9.970;2023-09-07T03:00:02;5.55;;;4.68;;
79597;SDS011;69081;53.572;9.970;2023-09-07T03:02:36;5.78;;;4.63;;
79597;SDS011;69081;53.572;9.970;2023-09-07T03:05:05;6.93;;;4.80;;
79597;SDS011;69081;53.572;9.970;2023-09-07T03:10:03;5.43;;;4.40;;
79597;SDS011;69081;53.572;9.970;2023-09-07T03:12:31;7.43;;;4.97;;
79597;SDS011;69081;53.572;9.970;2023-09-07T03:14:59;5.70;;;4.72;;
79597;SDS011;69081;53.572;9.970;2023-09-07T03:17:30;6.32;;;4.40;;
79597;SDS011;69081;53.572;9.970;2023-09-07T03:19:58;5.68;;;4.40;;
79597;SDS011;69081;53.572;9.970;2023-09-07T03:22:26;6.13;;;4.55;;
79597;SDS011;69081;53.572;9.970;2023-09-07T03:24:57;4.80;;;4.25;;
79597;SDS011;69081;53.572;9.970;2023-09-07T03:27:25;4.82;;;4.25;;
79597;SDS011;69081;53.572;9.970;2023-09-07T03:29:53;5.32;;;4.13;;
79597;SDS011;69081;53.572;9.970;2023-09-07T03:32:21;5.95;;;4.88;;
79597;SDS011;69081;53.572;9.970;2023-09-07T03:34:49;5.00;;;4.05;;
79597;SDS011;69081;53.572;9.970;2023-09-07T03:37:17;4.43;;;3.90;;
79597;SDS011;69081;53.572;9.970;2023-09-07T03:39:45;4.95;;;3.83;;
79597;SDS011;69081;53.572;9.970;2023-09-07T03:42:15;5.20;;;4.10;;
79597;SDS011;69081;53.572;9.970;2023-09-07T03:44:43;7.47;;;5.00;;
79597;SDS011;69081;53.572;9.970;2023-09-07T03:47:11;4.78;;;4.22;;
79597;SDS011;69081;53.572;9.970;2023-09-07T03:49:41;5.43;;;3.63;;
79597;SDS011;69081;53.572;9.970;2023-09-07T03:52:09;4.32;;;3.50;;
79597;SDS011;69081;53.572;9.970;2023-09-07T03:54:38;5.57;;;4.18;;
79597;SDS011;69081;53.572;9.970;2023-09-07T03:57:06;5.45;;;4.07;;
79597;SDS011;69081;53.572;9.970;2023-09-07T03:59:35;5.05;;;3.95;;
79597;SDS011;69081;53.572;9.970;2023-09-07T04:02:04;5.28;;;4.28;;
79597;SDS011;69081;53.572;9.970;2023-09-07T04:04:32;7.07;;;4.50;;
79597;SDS011;69081;53.572;9.970;2023-09-07T04:07:01;4.70;;;4.03;;
79597;SDS011;69081;53.572;9.970;2023-09-07T04:09:29;4.43;;;3.88;;
79597;SDS011;69081;53.572;9.970;2023-09-07T04:14:27;6.00;;;4.40;;
79597;SDS011;69081;53.572;9.970;2023-09-07T04:16:57;4.68;;;3.95;;
79597;SDS011;69081;53.572;9.970;2023-09-07T04:19:25;4.38;;;3.60;;
79597;SDS011;69081;53.572;9.970;2023-09-07T04:21:53;4.63;;;3.80;;
79597;SDS011;69081;53.572;9.970;2023-09-07T04:24:21;4.70;;;4.05;;
79597;SDS011;69081;53.572;9.970;2023-09-07T04:26:49;4.85;;;3.67;;
79597;SDS011;69081;53.572;9.970;2023-09-07T04:29:17;5.68;;;4.30;;
79597;SDS011;69081;53.572;9.970;2023-09-07T04:31:45;5.53;;;4.50;;
79597;SDS011;69081;53.572;9.970;2023-09-07T04:34:14;4.55;;;3.92;;
79597;SDS011;69081;53.572;9.970;2023-09-07T04:36:42;5.07;;;4.50;;
79597;SDS011;69081;53.572;9.970;2023-09-07T04:39:11;5.03;;;4.50;;
79597;SDS011;69081;53.572;9.970;2023-09-07T04:41:40;4.53;;;4.00;;
79597;SDS011;69081;53.572;9.970;2023-09-07T04:44:08;5.15;;;4.65;;
79597;SDS011;69081;53.572;9.970;2023-09-07T04:46:37;6.38;;;4.55;;
79597;SDS011;69081;53.572;9.970;2023-09-07T04:49:05;5.28;;;4.25;;
79597;SDS011;69081;53.572;9.970;2023-09-07T04:51:36;5.95;;;4.93;;
79597;SDS011;69081;53.572;9.970;2023-09-07T04:54:04;6.38;;;4.70;;
79597;SDS011;69081;53.572;9.970;2023-09-07T04:56:32;5.47;;;4.32;;
79597;SDS011;69081;53.572;9.970;2023-09-07T04:59:00;5.72;;;4.28;;
79597;SDS011;69081;53.572;9.970;2023-09-07T05:01:28;5.18;;;4.03;;
79597;SDS011;69081;53.572;9.970;2023-09-07T05:03:56;4.97;;;4.00;;
79597;SDS011;69081;53.572;9.970;2023-09-07T05:06:24;4.47;;;3.90;;
79597;SDS011;69081;53.572;9.970;2023-09-07T05:08:54;5.70;;;4.03;;
79597;SDS011;69081;53.572;9.970;2023-09-07T05:11:22;6.10;;;4.30;;
79597;SDS011;69081;53.572;9.970;2023-09-07T05:13:50;4.65;;;4.05;;
79597;SDS011;69081;53.572;9.970;2023-09-07T05:16:18;4.85;;;4.38;;
79597;SDS011;69081;53.572;9.970;2023-09-07T05:18:46;4.05;;;3.50;;
79597;SDS011;69081;53.572;9.970;2023-09-07T05:21:14;5.10;;;4.05;;
79597;SDS011;69081;53.572;9.970;2023-09-07T05:23:43;5.47;;;4.30;;
79597;SDS011;69081;53.572;9.970;2023-09-07T05:26:12;5.03;;;3.83;;
79597;SDS011;69081;53.572;9.970;2023-09-07T05:28:40;5.63;;;4.65;;
79597;SDS011;69081;53.572;9.970;2023-09-07T05:31:08;5.70;;;4.25;;
79597;SDS011;69081;53.572;9.970;2023-09-07T05:33:37;5.40;;;4.32;;
79597;SDS011;69081;53.572;9.970;2023-09-07T05:36:05;7.43;;;4.70;;
79597;SDS011;69081;53.572;9.970;2023-09-07T05:38:33;6.50;;;4.45;;
79597;SDS011;69081;53.572;9.970;2023-09-07T05:41:02;5.97;;;5.32;;
79597;SDS011;69081;53.572;9.970;2023-09-07T05:43:32;6.20;;;3.92;;
79597;SDS011;69081;53.572;9.970;2023-09-07T05:46:00;6.15;;;4.95;;
79597;SDS011;69081;53.572;9.970;2023-09-07T05:48:28;6.68;;;5.05;;
79597;SDS011;69081;53.572;9.970;2023-09-07T05:50:56;4.72;;;3.80;;
79597;SDS011;69081;53.572;9.970;2023-09-07T05:53:24;6.13;;;4.50;;
79597;SDS011;69081;53.572;9.970;2023-09-07T05:55:52;4.88;;;4.22;;
79597;SDS011;69081;53.572;9.970;2023-09-07T05:58:20;7.07;;;5.15;;
79597;SDS011;69081;53.572;9.970;2023-09-07T06:00:51;5.63;;;4.13;;
79597;SDS011;69081;53.572;9.970;2023-09-07T06:03:19;5.03;;;4.07;;
79597;SDS011;69081;53.572;9.970;2023-09-07T06:05:47;5.07;;;4.22;;
79597;SDS011;69081;53.572;9.970;2023-09-07T06:08:15;5.20;;;4.28;;
79597;SDS011;69081;53.572;9.970;2023-09-07T06:10:43;4.60;;;3.83;;
79597;SDS011;69081;53.572;9.970;2023-09-07T06:13:11;6.88;;;4.20;;
79597;SDS011;69081;53.572;9.970;2023-09-07T06:15:39;5.10;;;4.50;;
79597;SDS011;69081;53.572;9.970;2023-09-07T06:18:09;6.18;;;4.88;;
79597;SDS011;69081;53.572;9.970;2023-09-07T06:20:37;7.20;;;4.90;;
79597;SDS011;69081;53.572;9.970;2023-09-07T06:23:06;5.45;;;4.38;;
79597;SDS011;69081;53.572;9.970;2023-09-07T06:25:33;5.45;;;4.63;;
79597;SDS011;69081;53.572;9.970;2023-09-07T06:28:01;5.75;;;4.25;;
79597;SDS011;69081;53.572;9.970;2023-09-07T06:30:29;5.80;;;4.43;;
79597;SDS011;69081;53.572;9.970;2023-09-07T06:32:57;5.07;;;4.38;;
79597;SDS011;69081;53.572;9.970;2023-09-07T06:35:27;5.93;;;4.63;;
79597;SDS011;69081;53.572;9.970;2023-09-07T06:37:55;5.10;;;4.13;;
79597;SDS011;69081;53.572;9.970;2023-09-07T06:40:23;6.40;;;4.95;;
79597;SDS011;69081;53.572;9.970;2023-09-07T06:42:52;6.65;;;4.95;;
79597;SDS011;69081;53.572;9.970;2023-09-07T06:45:21;4.82;;;3.90;;
79597;SDS011;69081;53.572;9.970;2023-09-07T06:47:50;4.55;;;3.88;;
79597;SDS011;69081;53.572;9.970;2023-09-07T06:50:19;5.22;;;4.45;;
79597;SDS011;69081;53.572;9.970;2023-09-07T06:52:49;5.82;;;4.57;;
79597;SDS011;69081;53.572;9.970;2023-09-07T06:55:17;4.78;;;3.80;;
79597;SDS011;69081;53.572;9.970;2023-09-07T06:57:46;5.15;;;4.30;;
79597;SDS011;69081;53.572;9.970;2023-09-07T07:00:14;5.30;;;4.30;;
79597;SDS011;69081;53.572;9.970;2023-09-07T07:02:43;5.28;;;4.47;;
79597;SDS011;69081;53.572;9.970;2023-09-07T07:05:11;7.03;;;4.55;;
79597;SDS011;69081;53.572;9.970;2023-09-07T07:07:40;6.65;;;4.40;;
79597;SDS011;69081;53.572;9.970;2023-09-07T07:10:09;5.40;;;4.30;;
79597;SDS011;69081;53.572;9.970;2023-09-07T07:12:38;5.95;;;4.53;;
79597;SDS011;69081;53.572;9.970;2023-09-07T07:15:07;5.65;;;4.70;;
79597;SDS011;69081;53.572;9.970;2023-09-07T07:17:38;5.57;;;4.35;;
79597;SDS011;69081;53.572;9.970;2023-09-07T07:20:07;5.50;;;4.35;;
79597;SDS011;69081;53.572;9.970;2023-09-07T07:22:36;5.57;;;4.20;;
79597;SDS011;69081;53.572;9.970;2023-09-07T07:25:04;4.90;;;4.10;;
79597;SDS011;69081;53.572;9.970;2023-09-07T07:27:33;6.22;;;5.07;;
79597;SDS011;69081;53.572;9.970;2023-09-07T07:30:01;9.38;;;5.85;;
79597;SDS011;69081;53.572;9.970;2023-09-07T07:32:30;6.78;;;5.00;;
79597;SDS011;69081;53.572;9.970;2023-09-07T07:34:58;9.15;;;6.18;;
79597;SDS011;69081;53.572;9.970;2023-09-07T07:37:26;10.52;;;7.20;;
79597;SDS011;69081;53.572;9.970;2023-09-07T07:39:54;8.45;;;6.20;;
79597;SDS011;69081;53.572;9.970;2023-09-07T07:42:22;9.15;;;6.30;;
79597;SDS011;69081;53.572;9.970;2023-09-07T07:44:52;10.80;;;6.00;;
79597;SDS011;69081;53.572;9.970;2023-09-07T07:47:20;8.40;;;5.97;;
79597;SDS011;69081;53.572;9.970;2023-09-07T07:49:48;8.55;;;5.93;;
79597;SDS011;69081;53.572;9.970;2023-09-07T07:52:16;7.82;;;6.40;;
79597;SDS011;69081;53.572;9.970;2023-09-07T07:54:44;8.82;;;5.70;;
79597;SDS011;69081;53.572;9.970;2023-09-07T07:57:12;7.75;;;5.57;;
79597;SDS011;69081;53.572;9.970;2023-09-07T07:59:40;7.28;;;5.35;;
79597;SDS011;69081;53.572;9.970;2023-09-07T08:02:09;7.40;;;5.70;;
79597;SDS011;69081;53.572;9.970;2023-09-07T08:04:37;8.40;;;5.90;;
79597;SDS011;69081;53.572;9.970;2023-09-07T08:07:05;9.73;;;6.70;;
79597;SDS011;69081;53.572;9.970;2023-09-07T08:09:35;9.10;;;5.90;;
79597;SDS011;69081;53.572;9.970;2023-09-07T08:14:32;8.15;;;5.70;;
79597;SDS011;69081;53.572;9.970;2023-09-07T08:17:00;7.93;;;5.93;;
79597;SDS011;69081;53.572;9.970;2023-09-07T08:19:31;10.65;;;5.47;;
79597;SDS011;69081;53.572;9.970;2023-09-07T08:21:59;9.68;;;5.72;;
79597;SDS011;69081;53.572;9.970;2023-09-07T08:24:30;9.32;;;5.70;;
79597;SDS011;69081;53.572;9.970;2023-09-07T08:26:58;7.70;;;5.57;;
79597;SDS011;69081;53.572;9.970;2023-09-07T08:29:26;7.70;;;5.57;;
79597;SDS011;69081;53.572;9.970;2023-09-07T08:31:58;10.40;;;5.40;;
79597;SDS011;69081;53.572;9.970;2023-09-07T08:34:28;8.15;;;6.05;;
79597;SDS011;69081;53.572;9.970;2023-09-07T08:36:58;7.82;;;5.22;;
79597;SDS011;69081;53.572;9.970;2023-09-07T08:39:26;8.13;;;5.10;;
79597;SDS011;69081;53.572;9.970;2023-09-07T08:41:55;8.63;;;5.70;;
79597;SDS011;69081;53.572;9.970;2023-09-07T08:44:28;8.18;;;5.30;;
79597;SDS011;69081;53.572;9.970;2023-09-07T08:46:57;6.65;;;5.18;;
79597;SDS011;69081;53.572;9.970;2023-09-07T08:49:26;8.02;;;5.78;;
79597;SDS011;69081;53.572;9.970;2023-09-07T08:54:26;6.47;;;5.22;;
79597;SDS011;69081;53.572;9.970;2023-09-07T08:56:56;7.78;;;5.03;;
79597;SDS011;69081;53.572;9.970;2023-09-07T08:59:24;7.70;;;5.28;;
79597;SDS011;69081;53.572;9.970;2023-09-07T09:01:55;7.22;;;5.28;;
79597;SDS011;69081;53.572;9.970;2023-09-07T09:04:25;7.38;;;4.72;;
79597;SDS011;69081;53.572;9.970;2023-09-07T09:06:54;7.40;;;5.03;;
79597;SDS011;69081;53.572;9.970;2023-09-07T09:09:22;6.63;;;4.88;;
79597;SDS011;69081;53.572;9.970;2023-09-07T09:11:53;6.68;;;5.13;;
79597;SDS011;69081;53.572;9.970;2023-09-07T09:14:21;6.43;;;4.95;;
79597;SDS011;69081;53.572;9.970;2023-09-07T09:16:50;8.30;;;5.00;;
79597;SDS011;69081;53.572;9.970;2023-09-07T09:19:18;7.05;;;4.78;;
79597;SDS011;69081;53.572;9.970;2023-09-07T09:21:46;6.68;;;4.90;;
79597;SDS011;69081;53.572;9.970;2023-09-07T09:24:16;6.60;;;4.57;;
79597;SDS011;69081;53.572;9.970;2023-09-07T09:26:44;8.32;;;5.40;;
79597;SDS011;69081;53.572;9.970;2023-09-07T09:29:14;9.80;;;5.63;;
79597;SDS011;69081;53.572;9.970;2023-09-07T09:31:43;7.45;;;5.13;;
79597;SDS011;69081;53.572;9.970;2023-09-07T09:34:11;10.73;;;6.28;;
79597;SDS011;69081;53.572;9.970;2023-09-07T09:36:41;9.23;;;6.10;;
79597;SDS011;69081;53.572;9.970;2023-09-07T09:39:09;11.23;;;5.90;;
79597;SDS011;69081;53.572;9.970;2023-09-07T09:41:39;6.60;;;5.03;;
79597;SDS011;69081;53.572;9.970;2023-09-07T09:44:07;8.73;;;5.55;;
79597;SDS011;69081;53.572;9.970;2023-09-07T09:46:36;5.97;;;4.72;;
79597;SDS011;69081;53.572;9.970;2023-09-07T09:49:07;8.32;;;5.22;;
79597;SDS011;69081;53.572;9.970;2023-09-07T09:51:38;6.85;;;5.47;;
79597;SDS011;69081;53.572;9.970;2023-09-07T09:54:10;8.45;;;5.60;;
79597;SDS011;69081;53.572;9.970;2023-09-07T09:56:38;6.10;;;5.20;;
79597;SDS011;69081;53.572;9.970;2023-09-07T09:59:06;9.77;;;5.70;;
79597;SDS011;69081;53.572;9.970;2023-09-07T10:01:40;7.00;;;5.03;;
79597;SDS011;69081;53.572;9.970;2023-09-07T10:04:12;7.68;;;5.50;;
79597;SDS011;69081;53.572;9.970;2023-09-07T10:06:50;8.82;;;5.70;;
79597;SDS011;69081;53.572;9.970;2023-09-07T10:09:21;8.77;;;5.63;;
79597;SDS011;69081;53.572;9.970;2023-09-07T10:11:52;9.35;;;5.35;;
79597;SDS011;69081;53.572;9.970;2023-09-07T10:14:21;8.70;;;5.78;;
79597;SDS011;69081;53.572;9.970;2023-09-07T10:16:51;7.60;;;4.75;;
79597;SDS011;69081;53.572;9.970;2023-09-07T10:19:23;5.97;;;4.68;;
79597;SDS011;69081;53.572;9.970;2023-09-07T10:21:53;7.68;;;5.07;;
79597;SDS011;69081;53.572;9.970;2023-09-07T10:24:25;7.75;;;4.75;;
79597;SDS011;69081;53.572;9.970;2023-09-07T10:26:57;9.13;;;4.82;;
79597;SDS011;69081;53.572;9.970;2023-09-07T10:29:26;9.63;;;5.22;;
79597;SDS011;69081;53.572;9.970;2023-09-07T10:31:56;7.82;;;4.47;;
79597;SDS011;69081;53.572;9.970;2023-09-07T10:34:34;7.40;;;4.78;;
79597;SDS011;69081;53.572;9.970;2023-09-07T10:37:04;6.10;;;4.50;;
79597;SDS011;69081;53.572;9.970;2023-09-07T10:39:34;7.95;;;4.85;;
79597;SDS011;69081;53.572;9.970;2023-09-07T10:42:03;6.80;;;4.80;;
79597;SDS011;69081;53.572;9.970;2023-09-07T10:44:31;5.97;;;4.63;;
79597;SDS011;69081;53.572;9.970;2023-09-07T10:47:01;7.07;;;4.38;;
79597;SDS011;69081;53.572;9.970;2023-09-07T10:49:31;6.88;;;4.47;;
79597;SDS011;69081;53.572;9.970;2023-09-07T10:51:59;7.63;;;5.03;;
79597;SDS011;69081;53.572;9.970;2023-09-07T10:54:27;9.60;;;4.63;;
79597;SDS011;69081;53.572;9.970;2023-09-07T10:56:55;6.22;;;4.15;;
79597;SDS011;69081;53.572;9.970;2023-09-07T10:59:27;5.35;;;4.38;;
79597;SDS011;69081;53.572;9.970;2023-09-07T11:01:55;5.85;;;3.90;;
79597;SDS011;69081;53.572;9.970;2023-09-07T11:04:32;6.47;;;4.35;;
79597;SDS011;69081;53.572;9.970;2023-09-07T11:09:30;6.35;;;4.50;;
79597;SDS011;69081;53.572;9.970;2023-09-07T11:12:03;7.05;;;4.10;;
79597;SDS011;69081;53.572;9.970;2023-09-07T11:14:32;6.60;;;3.88;;
79597;SDS011;69081;53.572;9.970;2023-09-07T11:17:00;6.57;;;4.07;;
79597;SDS011;69081;53.572;9.970;2023-09-07T11:19:32;5.38;;;3.95;;
79597;SDS011;69081;53.572;9.970;2023-09-07T11:22:01;5.35;;;4.00;;
79597;SDS011;69081;53.572;9.970;2023-09-07T11:24:31;6.90;;;3.92;;
79597;SDS011;69081;53.572;9.970;2023-09-07T11:27:00;5.22;;;3.97;;
79597;SDS011;69081;53.572;9.970;2023-09-07T11:29:31;6.38;;;4.30;;
79597;SDS011;69081;53.572;9.970;2023-09-07T11:32:05;5.68;;;3.97;;
79597;SDS011;69081;53.572;9.970;2023-09-07T11:34:35;5.53;;;4.00;;
79597;SDS011;69081;53.572;9.970;2023-09-07T11:37:03;6.63;;;4.45;;
79597;SDS011;69081;53.572;9.970;2023-09-07T11:39:31;9.15;;;3.88;;
79597;SDS011;69081;53.572;9.970;2023-09-07T11:41:59;6.07;;;4.00;;
79597;SDS011;69081;53.572;9.970;2023-09-07T11:44:27;6.95;;;3.95;;
79597;SDS011;69081;53.572;9.970;2023-09-07T11:46:55;6.28;;;3.97;;
79597;SDS011;69081;53.572;9.970;2023-09-07T11:49:24;6.07;;;4.45;;
79597;SDS011;69081;53.572;9.970;2023-09-07T11:51:53;5.18;;;3.53;;
79597;SDS011;69081;53.572;9.970;2023-09-07T11:54:21;6.82;;;4.35;;
79597;SDS011;69081;53.572;9.970;2023-09-07T11:56:49;6.95;;;3.95;;
79597;SDS011;69081;53.572;9.970;2023-09-07T11:59:17;6.25;;;4.45;;
79597;SDS011;69081;53.572;9.970;2023-09-07T12:01:45;7.47;;;4.18;;
79597;SDS011;69081;53.572;9.970;2023-09-07T12:04:14;5.57;;;4.13;;
79597;SDS011;69081;53.572;9.970;2023-09-07T12:06:42;5.70;;;4.05;;
79597;SDS011;69081;53.572;9.970;2023-09-07T12:09:11;5.45;;;4.55;;
79597;SDS011;69081;53.572;9.970;2023-09-07T12:11:41;5.82;;;3.90;;
79597;SDS011;69081;53.572;9.970;2023-09-07T12:14:10;5.68;;;4.00;;
79597;SDS011;69081;53.572;9.970;2023-09-07T12:16:38;4.75;;;4.05;;
79597;SDS011;69081;53.572;9.970;2023-09-07T12:19:06;6.22;;;4.32;;
79597;SDS011;69081;53.572;9.970;2023-09-07T12:21:35;5.63;;;4.13;;
79597;SDS011;69081;53.572;9.970;2023-09-07T12:24:03;6.03;;;4.32;;
79597;SDS011;69081;53.572;9.970;2023-09-07T12:26:33;6.18;;;3.95;;
79597;SDS011;69081;53.572;9.970;2023-09-07T12:29:01;4.65;;;4.13;;
79597;SDS011;69081;53.572;9.970;2023-09-07T12:31:29;6.97;;;4.20;;
79597;SDS011;69081;53.572;9.970;2023-09-07T12:33:59;5.63;;;4.43;;
79597;SDS011;69081;53.572;9.970;2023-09-07T12:36:27;6.60;;;4.43;;
79597;SDS011;69081;53.572;9.970;2023-09-07T12:38:56;5.32;;;4.03;;
79597;SDS011;69081;53.572;9.970;2023-09-07T12:41:27;5.85;;;3.95;;
79597;SDS011;69081;53.572;9.970;2023-09-07T12:43:57;6.47;;;4.20;;
79597;SDS011;69081;53.572;9.970;2023-09-07T12:46:25;6.25;;;4.10;;
79597;SDS011;69081;53.572;9.970;2023-09-07T12:48:53;5.05;;;3.97;;
79597;SDS011;69081;53.572;9.970;2023-09-07T12:51:21;5.35;;;3.85;;
79597;SDS011;69081;53.572;9.970;2023-09-07T12:53:49;6.60;;;4.68;;
79597;SDS011;69081;53.572;9.970;2023-09-07T12:56:17;6.68;;;4.43;;
79597;SDS011;69081;53.572;9.970;2023-09-07T12:58:46;5.90;;;4.18;;
79597;SDS011;69081;53.572;9.970;2023-09-07T13:01:15;5.20;;;4.43;;
79597;SDS011;69081;53.572;9.970;2023-09-07T13:03:44;5.80;;;4.50;;
79597;SDS011;69081;53.572;9.970;2023-09-07T13:06:13;5.70;;;4.05;;
79597;SDS011;69081;53.572;9.970;2023-09-07T13:08:43;4.72;;;3.92;;
79597;SDS011;69081;53.572;9.970;2023-09-07T13:11:12;6.45;;;3.83;;
79597;SDS011;69081;53.572;9.970;2023-09-07T13:13:40;6.32;;;4.68;;
79597;SDS011;69081;53.572;9.970;2023-09-07T13:16:08;6.03;;;3.97;;
79597;SDS011;69081;53.572;9.970;2023-09-07T13:18:37;5.55;;;4.28;;
79597;SDS011;69081;53.572;9.970;2023-09-07T13:21:05;4.85;;;4.10;;
79597;SDS011;69081;53.572;9.970;2023-09-07T13:23:34;6.15;;;4.13;;
79597;SDS011;69081;53.572;9.970;2023-09-07T13:26:01;6.63;;;4.32;;
79597;SDS011;69081;53.572;9.970;2023-09-07T13:28:29;6.93;;;4.47;;
79597;SDS011;69081;53.572;9.970;2023-09-07T13:30:58;5.70;;;3.97;;
79597;SDS011;69081;53.572;9.970;2023-09-07T13:33:27;8.32;;;4.18;;
79597;SDS011;69081;53.572;9.970;2023-09-07T13:35:58;6.38;;;4.72;;
79597;SDS011;69081;53.572;9.970;2023-09-07T13:38:26;6.80;;;4.15;;
79597;SDS011;69081;53.572;9.970;2023-09-07T13:43:22;6.18;;;3.90;;
79597;SDS011;69081;53.572;9.970;2023-09-07T13:45:50;5.38;;;4.20;;
79597;SDS011;69081;53.572;9.970;2023-09-07T13:48:18;5.25;;;3.90;;
79597;SDS011;69081;53.572;9.970;2023-09-07T13:50:46;5.25;;;4.00;;
79597;SDS011;69081;53.572;9.970;2023-09-07T13:55:44;7.05;;;4.88;;
79597;SDS011;69081;53.572;9.970;2023-09-07T14:00:41;5.82;;;4.00;;
79597;SDS011;69081;53.572;9.970;2023-09-07T14:03:09;6.00;;;4.18;;
79597;SDS011;69081;53.572;9.970;2023-09-07T14:05:37;5.72;;;4.50;;
79597;SDS011;69081;53.572;9.970;2023-09-07T14:08:06;5.63;;;4.40;;
79597;SDS011;69081;53.572;9.970;2023-09-07T14:10:35;6.80;;;4.60;;
79597;SDS011;69081;53.572;9.970;2023-09-07T14:13:03;6.30;;;4.72;;
79597;SDS011;69081;53.572;9.970;2023-09-07T14:15:31;5.35;;;4.05;;
79597;SDS011;69081;53.572;9.970;2023-09-07T14:18:00;6.45;;;4.63;;
79597;SDS011;69081;53.572;9.970;2023-09-07T14:20:29;4.78;;;3.90;;
79597;SDS011;69081;53.572;9.970;2023-09-07T14:22:57;5.38;;;4.05;;
79597;SDS011;69081;53.572;9.970;2023-09-07T14:25:27;5.18;;;4.05;;
79597;SDS011;69081;53.572;9.970;2023-09-07T14:27:56;6.95;;;4.65;;
79597;SDS011;69081;53.572;9.970;2023-09-07T14:30:24;6.10;;;4.25;;
79597;SDS011;69081;53.572;9.970;2023-09-07T14:32:53;6.10;;;4.45;;
79597;SDS011;69081;53.572;9.970;2023-09-07T14:35:21;7.15;;;4.55;;
79597;SDS011;69081;53.572;9.970;2023-09-07T14:37:49;6.28;;;4.75;;
79597;SDS011;69081;53.572;9.970;2023-09-07T14:40:19;6.82;;;4.18;;
79597;SDS011;69081;53.572;9.970;2023-09-07T14:42:48;5.07;;;3.95;;
79597;SDS011;69081;53.572;9.970;2023-09-07T14:45:18;6.57;;;4.70;;
79597;SDS011;69081;53.572;9.970;2023-09-07T14:47:46;5.78;;;4.32;;
79597;SDS011;69081;53.572;9.970;2023-09-07T14:50:14;7.18;;;4.57;;
79597;SDS011;69081;53.572;9.970;2023-09-07T14:52:43;5.85;;;4.65;;
79597;SDS011;69081;53.572;9.970;2023-09-07T14:55:13;6.53;;;4.75;;
79597;SDS011;69081;53.572;9.970;2023-09-07T14:57:42;5.50;;;4.40;;
79597;SDS011;69081;53.572;9.970;2023-09-07T15:00:11;7.03;;;4.53;;
79597;SDS011;69081;53.572;9.970;2023-09-07T15:02:40;6.15;;;4.68;;
79597;SDS011;69081;53.572;9.970;2023-09-07T15:05:09;5.38;;;4.30;;
79597;SDS011;69081;53.572;9.970;2023-09-07T15:07:37;5.22;;;4.00;;
79597;SDS011;69081;53.572;9.970;2023-09-07T15:10:05;7.15;;;5.07;;
79597;SDS011;69081;53.572;9.970;2023-09-07T15:12:34;5.53;;;4.40;;
79597;SDS011;69081;53.572;9.970;2023-09-07T15:15:02;5.40;;;4.47;;
79597;SDS011;69081;53.572;9.970;2023-09-07T15:19:59;7.43;;;4.68;;